sensor_id;sensor_type;location;lat;lon;timestamp;temperature;humidity
11446;DHT22;5779;64.178;15.432;2022-09-03T00:02:33;6.10;99.90
11446;DHT22;5779;64.178;15.432;2022-09-03T00:05:25;6.20;99.90
11446;DHT22;5779;64.178;15.432;2022-09-03T00:08:16;6.00;99.90
11446;DHT22;5779;64.178;15.432;2022-09-03T00:11:11;6.00;99.90
11446;DHT22;5779;64.178;15.432;2022-09-03T00:14:03;6.00;99.90
11446;DHT22;5779;64.178;15.432;2022-09-03T00:16:55;6.00;99.90
11446;DHT22;5779;64.178;15.432;2022-09-03T00:19:47;6.10;99.90
11446;DHT22;5779;64.178;15.432;2022-09-03T00:22:40;6.20;99.90
11446;DHT22;5779;64.178;15.432;2022-09-03T00:25:33;6.30;99.90
11446;DHT22;5779;64.178;15.432;2022-09-03T00:28:25;6.30;99.90
11446;DHT22;5779;64.178;15.432;2022-09-03T00:31:17;6.10;99.90
11446;DHT22;5779;64.178;15.432;2022-09-03T00:34:09;5.90;99.90
11446;DHT22;5779;64.178;15.432;2022-09-03T00:36:57;5.80;99.90
11446;DHT22;5779;64.178;15.432;2022-09-03T00:39:44;5.60;99.90
11446;DHT22;5779;64.178;15.432;2022-09-03T00:42:38;5.60;99.90
11446;DHT22;5779;64.178;15.432;2022-09-03T00:45:37;5.60;99.90
11446;DHT22;5779;64.178;15.432;2022-09-03T00:48:35;5.60;99.90
11446;DHT22;5779;64.178;15.432;2022-09-03T00:51:39;5.60;99.90
11446;DHT22;5779;64.178;15.432;2022-09-03T00:54:34;5.50;99.90
11446;DHT22;5779;64.178;15.432;2022-09-03T00:57:37;5.50;99.90
11446;DHT22;5779;64.178;15.432;2022-09-03T01:00:28;5.40;99.90
11446;DHT22;5779;64.178;15.432;2022-09-03T01:03:22;5.40;99.90
11446;DHT22;5779;64.178;15.432;2022-09-03T01:06:16;5.30;99.90
11446;DHT22;5779;64.178;15.432;2022-09-03T01:09:18;5.00;99.90
11446;DHT22;5779;64.178;15.432;2022-09-03T01:12:17;4.90;99.90
11446;DHT22;5779;64.178;15.432;2022-09-03T01:15:10;4.80;99.90
11446;DHT22;5779;64.178;15.432;2022-09-03T01:18:07;4.70;99.90
11446;DHT22;5779;64.178;15.432;2022-09-03T01:21:03;4.60;99.90
11446;DHT22;5779;64.178;15.432;2022-09-03T01:24:09;4.60;99.90
11446;DHT22;5779;64.178;15.432;2022-09-03T01:27:08;4.70;99.90
11446;DHT22;5779;64.178;15.432;2022-09-03T01:30:02;4.60;99.90
11446;DHT22;5779;64.178;15.432;2022-09-03T01:32:55;4.20;99.90
11446;DHT22;5779;64.178;15.432;2022-09-03T01:35:47;4.20;99.90
11446;DHT22;5779;64.178;15.432;2022-09-03T01:38:41;4.20;99.90
11446;DHT22;5779;64.178;15.432;2022-09-03T01:41:40;4.20;99.90
11446;DHT22;5779;64.178;15.432;2022-09-03T01:45:14;4.00;99.90
11446;DHT22;5779;64.178;15.432;2022-09-03T01:48:13;3.80;99.90
11446;DHT22;5779;64.178;15.432;2022-09-03T01:51:10;3.80;99.90
11446;DHT22;5779;64.178;15.432;2022-09-03T01:57:48;3.70;99.90
11446;DHT22;5779;64.178;15.432;2022-09-03T02:00:43;3.60;99.90
11446;DHT22;5779;64.178;15.432;2022-09-03T02:03:37;3.40;99.90
11446;DHT22;5779;64.178;15.432;2022-09-03T02:06:24;3.40;99.90
11446;DHT22;5779;64.178;15.432;2022-09-03T02:09:11;3.50;99.90
11446;DHT22;5779;64.178;15.432;2022-09-03T02:12:02;3.60;99.90
11446;DHT22;5779;64.178;15.432;2022-09-03T02:14:52;3.50;99.90
11446;DHT22;5779;64.178;15.432;2022-09-03T02:17:42;3.60;99.90
11446;DHT22;5779;64.178;15.432;2022-09-03T02:20:29;3.60;99.90
11446;DHT22;5779;64.178;15.432;2022-09-03T02:23:16;3.50;99.90
11446;DHT22;5779;64.178;15.432;2022-09-03T02:26:03;3.30;99.90
11446;DHT22;5779;64.178;15.432;2022-09-03T02:28:50;3.30;99.90
11446;DHT22;5779;64.178;15.432;2022-09-03T02:31:37;3.20;99.90
11446;DHT22;5779;64.178;15.432;2022-09-03T02:34:25;3.20;99.90
11446;DHT22;5779;64.178;15.432;2022-09-03T02:37:13;3.40;99.90
11446;DHT22;5779;64.178;15.432;2022-09-03T02:40:00;3.40;99.90
11446;DHT22;5779;64.178;15.432;2022-09-03T02:42:51;3.20;99.90
11446;DHT22;5779;64.178;15.432;2022-09-03T02:45:41;3.20;99.90
11446;DHT22;5779;64.178;15.432;2022-09-03T02:48:31;3.20;99.90
11446;DHT22;5779;64.178;15.432;2022-09-03T02:51:19;3.30;99.90
11446;DHT22;5779;64.178;15.432;2022-09-03T02:54:06;3.40;99.90
11446;DHT22;5779;64.178;15.432;2022-09-03T02:56:53;3.40;99.90
11446;DHT22;5779;64.178;15.432;2022-09-03T02:59:42;3.40;99.90
11446;DHT22;5779;64.178;15.432;2022-09-03T03:02:29;3.60;99.90
11446;DHT22;5779;64.178;15.432;2022-09-03T03:05:22;3.60;99.90
11446;DHT22;5779;64.178;15.432;2022-09-03T03:08:12;3.60;99.90
11446;DHT22;5779;64.178;15.432;2022-09-03T03:10:59;3.70;99.90
11446;DHT22;5779;64.178;15.432;2022-09-03T03:13:46;3.80;99.90
11446;DHT22;5779;64.178;15.432;2022-09-03T03:16:32;4.00;99.90
11446;DHT22;5779;64.178;15.432;2022-09-03T03:19:19;4.00;99.90
11446;DHT22;5779;64.178;15.432;2022-09-03T03:22:06;4.10;99.90
11446;DHT22;5779;64.178;15.432;2022-09-03T03:24:55;4.20;99.90
11446;DHT22;5779;64.178;15.432;2022-09-03T03:27:42;4.20;99.90
11446;DHT22;5779;64.178;15.432;2022-09-03T03:30:29;4.20;99.90
11446;DHT22;5779;64.178;15.432;2022-09-03T03:33:16;4.30;99.90
11446;DHT22;5779;64.178;15.432;2022-09-03T03:36:04;4.20;99.90
11446;DHT22;5779;64.178;15.432;2022-09-03T03:38:53;4.00;99.90
11446;DHT22;5779;64.178;15.432;2022-09-03T03:41:42;4.00;99.90
11446;DHT22;5779;64.178;15.432;2022-09-03T03:44:28;4.00;99.90
11446;DHT22;5779;64.178;15.432;2022-09-03T03:47:15;4.20;99.90
11446;DHT22;5779;64.178;15.432;2022-09-03T03:50:03;4.20;99.90
11446;DHT22;5779;64.178;15.432;2022-09-03T03:52:50;4.10;99.90
11446;DHT22;5779;64.178;15.432;2022-09-03T03:55:37;4.10;99.90
11446;DHT22;5779;64.178;15.432;2022-09-03T03:58:26;4.00;99.90
11446;DHT22;5779;64.178;15.432;2022-09-03T04:01:15;4.00;99.90
11446;DHT22;5779;64.178;15.432;2022-09-03T04:04:03;3.80;99.90
11446;DHT22;5779;64.178;15.432;2022-09-03T04:06:49;3.90;99.90
11446;DHT22;5779;64.178;15.432;2022-09-03T04:09:36;4.00;99.90
11446;DHT22;5779;64.178;15.432;2022-09-03T04:12:23;4.00;99.90
11446;DHT22;5779;64.178;15.432;2022-09-03T04:15:13;3.80;99.90
11446;DHT22;5779;64.178;15.432;2022-09-03T04:18:00;4.00;99.90
11446;DHT22;5779;64.178;15.432;2022-09-03T04:20:46;4.00;99.90
11446;DHT22;5779;64.178;15.432;2022-09-03T04:23:34;4.10;99.90
11446;DHT22;5779;64.178;15.432;2022-09-03T04:26:23;4.00;99.90
11446;DHT22;5779;64.178;15.432;2022-09-03T04:29:10;3.90;99.90
11446;DHT22;5779;64.178;15.432;2022-09-03T04:31:58;3.90;99.90
11446;DHT22;5779;64.178;15.432;2022-09-03T04:35:03;3.80;99.90
11446;DHT22;5779;64.178;15.432;2022-09-03T04:37:50;3.90;99.90
11446;DHT22;5779;64.178;15.432;2022-09-03T04:40:39;3.80;99.90
11446;DHT22;5779;64.178;15.432;2022-09-03T04:43:26;3.80;99.90
11446;DHT22;5779;64.178;15.432;2022-09-03T04:46:14;4.00;99.90
11446;DHT22;5779;64.178;15.432;2022-09-03T04:49:02;4.00;99.90
11446;DHT22;5779;64.178;15.432;2022-09-03T04:51:48;4.00;99.90
11446;DHT22;5779;64.178;15.432;2022-09-03T04:54:35;4.10;99.90
11446;DHT22;5779;64.178;15.432;2022-09-03T04:57:22;4.20;99.90
11446;DHT22;5779;64.178;15.432;2022-09-03T05:00:10;4.20;99.90
11446;DHT22;5779;64.178;15.432;2022-09-03T05:02:59;4.20;99.90
11446;DHT22;5779;64.178;15.432;2022-09-03T05:05:55;4.40;99.90
11446;DHT22;5779;64.178;15.432;2022-09-03T05:08:42;4.60;99.90
11446;DHT22;5779;64.178;15.432;2022-09-03T05:11:30;4.60;99.90
11446;DHT22;5779;64.178;15.432;2022-09-03T05:14:16;4.70;99.90
11446;DHT22;5779;64.178;15.432;2022-09-03T05:17:04;4.60;99.90
11446;DHT22;5779;64.178;15.432;2022-09-03T05:19:50;4.80;99.90
11446;DHT22;5779;64.178;15.432;2022-09-03T05:22:39;5.00;99.90
11446;DHT22;5779;64.178;15.432;2022-09-03T05:25:26;5.10;99.90
11446;DHT22;5779;64.178;15.432;2022-09-03T05:28:13;5.20;99.90
11446;DHT22;5779;64.178;15.432;2022-09-03T05:31:01;5.30;99.90
11446;DHT22;5779;64.178;15.432;2022-09-03T05:33:49;5.50;99.90
11446;DHT22;5779;64.178;15.432;2022-09-03T05:36:37;5.50;99.90
11446;DHT22;5779;64.178;15.432;2022-09-03T05:39:26;5.40;99.90
11446;DHT22;5779;64.178;15.432;2022-09-03T05:42:12;5.30;99.90
11446;DHT22;5779;64.178;15.432;2022-09-03T05:44:59;5.50;99.90
11446;DHT22;5779;64.178;15.432;2022-09-03T05:47:46;5.50;99.90
11446;DHT22;5779;64.178;15.432;2022-09-03T05:50:33;5.40;99.90
11446;DHT22;5779;64.178;15.432;2022-09-03T05:53:20;5.50;99.90
11446;DHT22;5779;64.178;15.432;2022-09-03T05:56:09;5.60;99.90
11446;DHT22;5779;64.178;15.432;2022-09-03T05:58:58;5.60;99.90
11446;DHT22;5779;64.178;15.432;2022-09-03T06:01:45;5.60;99.90
11446;DHT22;5779;64.178;15.432;2022-09-03T06:04:33;5.60;99.90
11446;DHT22;5779;64.178;15.432;2022-09-03T06:07:20;5.70;99.90
11446;DHT22;5779;64.178;15.432;2022-09-03T06:10:08;5.80;99.90
11446;DHT22;5779;64.178;15.432;2022-09-03T06:12:57;5.80;99.90
11446;DHT22;5779;64.178;15.432;2022-09-03T06:15:47;5.80;99.90
11446;DHT22;5779;64.178;15.432;2022-09-03T06:18:34;5.80;99.90
11446;DHT22;5779;64.178;15.432;2022-09-03T06:21:21;5.90;99.90
11446;DHT22;5779;64.178;15.432;2022-09-03T06:24:09;6.20;99.90
11446;DHT22;5779;64.178;15.432;2022-09-03T06:26:56;6.20;99.90
11446;DHT22;5779;64.178;15.432;2022-09-03T06:29:44;6.30;99.90
11446;DHT22;5779;64.178;15.432;2022-09-03T06:32:31;6.40;99.90
11446;DHT22;5779;64.178;15.432;2022-09-03T06:35:18;6.60;99.90
11446;DHT22;5779;64.178;15.432;2022-09-03T06:38:04;6.60;99.90
11446;DHT22;5779;64.178;15.432;2022-09-03T06:40:52;6.70;99.90
11446;DHT22;5779;64.178;15.432;2022-09-03T06:43:41;6.70;99.90
11446;DHT22;5779;64.178;15.432;2022-09-03T06:46:32;6.90;99.90
11446;DHT22;5779;64.178;15.432;2022-09-03T06:49:20;6.70;99.90
11446;DHT22;5779;64.178;15.432;2022-09-03T06:52:06;6.80;99.90
11446;DHT22;5779;64.178;15.432;2022-09-03T06:54:53;6.90;99.90
11446;DHT22;5779;64.178;15.432;2022-09-03T06:57:40;7.00;99.90
11446;DHT22;5779;64.178;15.432;2022-09-03T07:00:27;7.20;99.90
11446;DHT22;5779;64.178;15.432;2022-09-03T07:03:16;7.30;99.90
11446;DHT22;5779;64.178;15.432;2022-09-03T07:06:04;7.50;99.90
11446;DHT22;5779;64.178;15.432;2022-09-03T07:08:51;7.70;99.90
11446;DHT22;5779;64.178;15.432;2022-09-03T07:11:38;7.90;99.90
11446;DHT22;5779;64.178;15.432;2022-09-03T07:14:31;8.00;99.90
11446;DHT22;5779;64.178;15.432;2022-09-03T07:17:18;8.20;99.90
11446;DHT22;5779;64.178;15.432;2022-09-03T07:20:06;8.20;99.90
11446;DHT22;5779;64.178;15.432;2022-09-03T07:22:54;8.40;99.90
11446;DHT22;5779;64.178;15.432;2022-09-03T07:25:41;8.50;99.90
11446;DHT22;5779;64.178;15.432;2022-09-03T07:28:29;8.50;99.90
11446;DHT22;5779;64.178;15.432;2022-09-03T07:31:19;8.60;99.90
11446;DHT22;5779;64.178;15.432;2022-09-03T07:34:08;8.70;99.90
11446;DHT22;5779;64.178;15.432;2022-09-03T07:36:58;9.00;99.90
11446;DHT22;5779;64.178;15.432;2022-09-03T07:39:44;9.00;99.90
11446;DHT22;5779;64.178;15.432;2022-09-03T07:42:32;9.10;99.90
11446;DHT22;5779;64.178;15.432;2022-09-03T07:45:19;9.00;99.90
11446;DHT22;5779;64.178;15.432;2022-09-03T07:48:06;8.80;99.90
11446;DHT22;5779;64.178;15.432;2022-09-03T07:50:57;8.80;99.90
11446;DHT22;5779;64.178;15.432;2022-09-03T07:53:47;8.90;99.90
11446;DHT22;5779;64.178;15.432;2022-09-03T07:56:34;9.20;99.90
11446;DHT22;5779;64.178;15.432;2022-09-03T07:59:21;9.50;99.90
11446;DHT22;5779;64.178;15.432;2022-09-03T08:02:08;9.30;99.90
11446;DHT22;5779;64.178;15.432;2022-09-03T08:04:55;9.40;99.90
11446;DHT22;5779;64.178;15.432;2022-09-03T08:07:41;9.70;99.90
11446;DHT22;5779;64.178;15.432;2022-09-03T08:10:30;10.00;99.90
11446;DHT22;5779;64.178;15.432;2022-09-03T08:13:17;10.20;99.90
11446;DHT22;5779;64.178;15.432;2022-09-03T08:16:04;10.40;99.90
11446;DHT22;5779;64.178;15.432;2022-09-03T08:18:51;10.70;99.90
11446;DHT22;5779;64.178;15.432;2022-09-03T08:21:38;10.80;99.90
11446;DHT22;5779;64.178;15.432;2022-09-03T08:24:25;10.80;99.90
11446;DHT22;5779;64.178;15.432;2022-09-03T08:27:14;11.00;99.90
11446;DHT22;5779;64.178;15.432;2022-09-03T08:30:00;11.00;99.90
11446;DHT22;5779;64.178;15.432;2022-09-03T08:32:48;11.20;99.90
11446;DHT22;5779;64.178;15.432;2022-09-03T08:35:34;10.70;99.90
11446;DHT22;5779;64.178;15.432;2022-09-03T08:38:22;10.20;99.90
11446;DHT22;5779;64.178;15.432;2022-09-03T08:41:11;10.20;99.90
11446;DHT22;5779;64.178;15.432;2022-09-03T08:44:12;10.00;99.90
11446;DHT22;5779;64.178;15.432;2022-09-03T08:47:08;9.80;99.90
11446;DHT22;5779;64.178;15.432;2022-09-03T08:49:58;10.10;99.90
11446;DHT22;5779;64.178;15.432;2022-09-03T08:52:50;10.20;99.90
11446;DHT22;5779;64.178;15.432;2022-09-03T08:55:40;10.40;99.90
11446;DHT22;5779;64.178;15.432;2022-09-03T08:58:31;10.30;99.90
11446;DHT22;5779;64.178;15.432;2022-09-03T09:01:28;10.40;99.90
11446;DHT22;5779;64.178;15.432;2022-09-03T09:04:25;10.60;99.90
11446;DHT22;5779;64.178;15.432;2022-09-03T09:07:19;10.70;99.90
11446;DHT22;5779;64.178;15.432;2022-09-03T09:10:13;10.70;99.90
11446;DHT22;5779;64.178;15.432;2022-09-03T09:13:08;10.60;99.90
11446;DHT22;5779;64.178;15.432;2022-09-03T09:16:05;10.70;99.90
11446;DHT22;5779;64.178;15.432;2022-09-03T09:19:07;10.40;99.90
11446;DHT22;5779;64.178;15.432;2022-09-03T09:21:59;10.40;99.90
11446;DHT22;5779;64.178;15.432;2022-09-03T09:24:48;10.60;99.90
11446;DHT22;5779;64.178;15.432;2022-09-03T09:27:47;10.70;99.90
11446;DHT22;5779;64.178;15.432;2022-09-03T09:30:37;10.70;99.90
11446;DHT22;5779;64.178;15.432;2022-09-03T09:33:24;11.00;99.90
11446;DHT22;5779;64.178;15.432;2022-09-03T09:36:14;11.20;99.90
11446;DHT22;5779;64.178;15.432;2022-09-03T09:39:08;11.40;99.90
11446;DHT22;5779;64.178;15.432;2022-09-03T09:41:58;11.70;99.90
11446;DHT22;5779;64.178;15.432;2022-09-03T09:44:46;11.30;99.90
11446;DHT22;5779;64.178;15.432;2022-09-03T09:47:37;11.40;99.90
11446;DHT22;5779;64.178;15.432;2022-09-03T09:50:24;11.40;99.90
11446;DHT22;5779;64.178;15.432;2022-09-03T09:53:12;11.00;99.90
11446;DHT22;5779;64.178;15.432;2022-09-03T09:56:02;11.00;99.90
11446;DHT22;5779;64.178;15.432;2022-09-03T09:58:49;11.10;99.90
11446;DHT22;5779;64.178;15.432;2022-09-03T10:01:47;11.00;99.90
11446;DHT22;5779;64.178;15.432;2022-09-03T10:04:34;10.90;99.90
11446;DHT22;5779;64.178;15.432;2022-09-03T10:07:24;10.70;99.90
11446;DHT22;5779;64.178;15.432;2022-09-03T10:10:16;10.60;99.90
11446;DHT22;5779;64.178;15.432;2022-09-03T10:13:07;10.40;99.90
11446;DHT22;5779;64.178;15.432;2022-09-03T10:16:01;10.60;99.90
11446;DHT22;5779;64.178;15.432;2022-09-03T10:18:56;10.60;99.90
11446;DHT22;5779;64.178;15.432;2022-09-03T10:21:48;10.70;99.90
11446;DHT22;5779;64.178;15.432;2022-09-03T10:24:49;10.40;99.90
11446;DHT22;5779;64.178;15.432;2022-09-03T10:27:39;10.10;99.90
11446;DHT22;5779;64.178;15.432;2022-09-03T10:30:35;10.20;99.90
11446;DHT22;5779;64.178;15.432;2022-09-03T10:33:33;10.30;99.90
11446;DHT22;5779;64.178;15.432;2022-09-03T10:36:23;10.20;99.90
11446;DHT22;5779;64.178;15.432;2022-09-03T10:39:13;9.90;99.90
11446;DHT22;5779;64.178;15.432;2022-09-03T10:42:15;10.10;99.90
11446;DHT22;5779;64.178;15.432;2022-09-03T10:45:16;10.10;99.90
11446;DHT22;5779;64.178;15.432;2022-09-03T10:48:17;10.30;99.90
11446;DHT22;5779;64.178;15.432;2022-09-03T10:51:15;10.50;99.90
11446;DHT22;5779;64.178;15.432;2022-09-03T10:57:26;10.60;99.90
11446;DHT22;5779;64.178;15.432;2022-09-03T11:00:22;10.60;99.90
11446;DHT22;5779;64.178;15.432;2022-09-03T11:06:39;10.70;99.90
11446;DHT22;5779;64.178;15.432;2022-09-03T11:09:34;10.90;99.90
11446;DHT22;5779;64.178;15.432;2022-09-03T11:12:27;11.20;99.90
11446;DHT22;5779;64.178;15.432;2022-09-03T11:15:22;11.70;99.90
11446;DHT22;5779;64.178;15.432;2022-09-03T11:18:16;12.00;99.90
11446;DHT22;5779;64.178;15.432;2022-09-03T11:21:07;12.30;99.90
11446;DHT22;5779;64.178;15.432;2022-09-03T11:24:03;12.20;99.90
11446;DHT22;5779;64.178;15.432;2022-09-03T11:26:54;12.20;99.90
11446;DHT22;5779;64.178;15.432;2022-09-03T11:29:50;12.00;99.90
11446;DHT22;5779;64.178;15.432;2022-09-03T11:32:46;11.90;99.90
11446;DHT22;5779;64.178;15.432;2022-09-03T11:35:38;11.80;99.90
11446;DHT22;5779;64.178;15.432;2022-09-03T11:38:27;11.80;99.90
11446;DHT22;5779;64.178;15.432;2022-09-03T11:41:23;12.10;99.90
11446;DHT22;5779;64.178;15.432;2022-09-03T11:44:16;12.40;99.90
11446;DHT22;5779;64.178;15.432;2022-09-03T11:47:14;12.70;99.90
11446;DHT22;5779;64.178;15.432;2022-09-03T11:50:08;12.90;99.90
11446;DHT22;5779;64.178;15.432;2022-09-03T11:53:09;13.20;99.90
11446;DHT22;5779;64.178;15.432;2022-09-03T11:55:59;13.20;99.90
11446;DHT22;5779;64.178;15.432;2022-09-03T11:59:03;13.20;99.90
11446;DHT22;5779;64.178;15.432;2022-09-03T12:01:55;13.40;99.90
11446;DHT22;5779;64.178;15.432;2022-09-03T12:04:49;13.70;99.90
11446;DHT22;5779;64.178;15.432;2022-09-03T12:08:00;13.80;99.90
11446;DHT22;5779;64.178;15.432;2022-09-03T12:10:53;14.10;99.90
11446;DHT22;5779;64.178;15.432;2022-09-03T12:13:49;14.30;99.90
11446;DHT22;5779;64.178;15.432;2022-09-03T12:19:55;14.60;99.90
11446;DHT22;5779;64.178;15.432;2022-09-03T12:22:43;14.70;99.90
11446;DHT22;5779;64.178;15.432;2022-09-03T12:25:31;14.60;99.90
11446;DHT22;5779;64.178;15.432;2022-09-03T12:28:21;14.50;99.90
11446;DHT22;5779;64.178;15.432;2022-09-03T12:31:14;14.40;99.90
11446;DHT22;5779;64.178;15.432;2022-09-03T12:34:10;14.40;99.90
11446;DHT22;5779;64.178;15.432;2022-09-03T12:36:57;14.60;99.90
11446;DHT22;5779;64.178;15.432;2022-09-03T12:39:50;14.50;99.90
11446;DHT22;5779;64.178;15.432;2022-09-03T12:42:38;14.50;99.90
11446;DHT22;5779;64.178;15.432;2022-09-03T12:45:25;14.60;99.90
11446;DHT22;5779;64.178;15.432;2022-09-03T12:48:13;14.90;99.90
11446;DHT22;5779;64.178;15.432;2022-09-03T12:51:01;15.10;99.90
11446;DHT22;5779;64.178;15.432;2022-09-03T12:53:49;15.40;99.90
11446;DHT22;5779;64.178;15.432;2022-09-03T12:56:38;15.00;99.90
11446;DHT22;5779;64.178;15.432;2022-09-03T12:59:30;14.30;99.90
11446;DHT22;5779;64.178;15.432;2022-09-03T13:02:21;13.70;99.90
11446;DHT22;5779;64.178;15.432;2022-09-03T13:05:13;13.20;99.90
11446;DHT22;5779;64.178;15.432;2022-09-03T13:08:05;12.90;99.90
11446;DHT22;5779;64.178;15.432;2022-09-03T13:10:56;12.80;99.90
11446;DHT22;5779;64.178;15.432;2022-09-03T13:13:52;12.60;99.90
11446;DHT22;5779;64.178;15.432;2022-09-03T13:17:06;12.40;99.90
11446;DHT22;5779;64.178;15.432;2022-09-03T13:20:10;12.30;99.90
11446;DHT22;5779;64.178;15.432;2022-09-03T13:23:13;12.20;99.90
11446;DHT22;5779;64.178;15.432;2022-09-03T13:26:17;12.10;99.90
11446;DHT22;5779;64.178;15.432;2022-09-03T13:29:38;12.30;99.90
11446;DHT22;5779;64.178;15.432;2022-09-03T13:32:41;12.60;99.90
11446;DHT22;5779;64.178;15.432;2022-09-03T13:35:34;13.30;99.90
11446;DHT22;5779;64.178;15.432;2022-09-03T13:38:28;13.90;99.90
11446;DHT22;5779;64.178;15.432;2022-09-03T13:41:28;14.30;99.90
11446;DHT22;5779;64.178;15.432;2022-09-03T13:44:28;14.70;99.90
11446;DHT22;5779;64.178;15.432;2022-09-03T13:47:26;15.10;99.90
11446;DHT22;5779;64.178;15.432;2022-09-03T13:50:19;15.40;99.90
11446;DHT22;5779;64.178;15.432;2022-09-03T13:53:11;15.70;99.90
11446;DHT22;5779;64.178;15.432;2022-09-03T13:56:03;15.50;99.90
11446;DHT22;5779;64.178;15.432;2022-09-03T13:58:59;15.30;99.90
11446;DHT22;5779;64.178;15.432;2022-09-03T14:02:05;14.80;99.90
11446;DHT22;5779;64.178;15.432;2022-09-03T14:05:05;14.60;99.90
11446;DHT22;5779;64.178;15.432;2022-09-03T14:08:03;15.10;99.90
11446;DHT22;5779;64.178;15.432;2022-09-03T14:11:02;15.10;99.90
11446;DHT22;5779;64.178;15.432;2022-09-03T14:14:01;15.20;99.90
11446;DHT22;5779;64.178;15.432;2022-09-03T14:16:57;15.80;99.90
11446;DHT22;5779;64.178;15.432;2022-09-03T14:19:50;16.10;99.90
11446;DHT22;5779;64.178;15.432;2022-09-03T14:22:46;16.20;98.50
11446;DHT22;5779;64.178;15.432;2022-09-03T14:25:35;15.30;98.80
11446;DHT22;5779;64.178;15.432;2022-09-03T14:28:29;15.10;99.90
11446;DHT22;5779;64.178;15.432;2022-09-03T14:31:26;15.20;99.90
11446;DHT22;5779;64.178;15.432;2022-09-03T14:34:22;14.80;99.60
11446;DHT22;5779;64.178;15.432;2022-09-03T14:37:36;14.50;99.90
11446;DHT22;5779;64.178;15.432;2022-09-03T14:40:29;14.00;99.90
11446;DHT22;5779;64.178;15.432;2022-09-03T14:43:47;13.70;99.90
11446;DHT22;5779;64.178;15.432;2022-09-03T14:46:48;13.20;99.90
11446;DHT22;5779;64.178;15.432;2022-09-03T14:49:55;13.10;99.90
11446;DHT22;5779;64.178;15.432;2022-09-03T14:53:13;12.90;99.90
11446;DHT22;5779;64.178;15.432;2022-09-03T14:56:21;13.40;99.90
11446;DHT22;5779;64.178;15.432;2022-09-03T14:59:32;14.00;99.90
11446;DHT22;5779;64.178;15.432;2022-09-03T15:05:52;14.50;99.20
11446;DHT22;5779;64.178;15.432;2022-09-03T15:08:50;15.10;98.90
11446;DHT22;5779;64.178;15.432;2022-09-03T15:11:47;15.70;98.80
11446;DHT22;5779;64.178;15.432;2022-09-03T15:14:41;16.20;97.00
11446;DHT22;5779;64.178;15.432;2022-09-03T15:17:53;16.30;97.20
11446;DHT22;5779;64.178;15.432;2022-09-03T15:20:48;15.70;96.50
11446;DHT22;5779;64.178;15.432;2022-09-03T15:23:51;14.80;98.30
11446;DHT22;5779;64.178;15.432;2022-09-03T15:29:58;14.70;98.90
11446;DHT22;5779;64.178;15.432;2022-09-03T15:33:06;13.60;99.90
11446;DHT22;5779;64.178;15.432;2022-09-03T15:36:16;12.80;99.90
11446;DHT22;5779;64.178;15.432;2022-09-03T15:39:06;12.60;99.90
11446;DHT22;5779;64.178;15.432;2022-09-03T15:41:57;12.40;99.90
11446;DHT22;5779;64.178;15.432;2022-09-03T15:44:47;12.00;99.90
11446;DHT22;5779;64.178;15.432;2022-09-03T15:47:39;11.90;99.90
11446;DHT22;5779;64.178;15.432;2022-09-03T15:50:32;11.90;99.90
11446;DHT22;5779;64.178;15.432;2022-09-03T15:53:29;11.80;99.90
11446;DHT22;5779;64.178;15.432;2022-09-03T15:56:21;11.80;99.90
11446;DHT22;5779;64.178;15.432;2022-09-03T15:59:14;11.70;99.90
11446;DHT22;5779;64.178;15.432;2022-09-03T16:02:06;11.10;99.90
11446;DHT22;5779;64.178;15.432;2022-09-03T16:05:06;10.70;99.90
11446;DHT22;5779;64.178;15.432;2022-09-03T16:08:03;10.70;99.90
11446;DHT22;5779;64.178;15.432;2022-09-03T16:10:57;10.60;99.90
11446;DHT22;5779;64.178;15.432;2022-09-03T16:13:58;10.70;99.90
11446;DHT22;5779;64.178;15.432;2022-09-03T16:16:56;10.80;99.90
11446;DHT22;5779;64.178;15.432;2022-09-03T16:19:50;10.70;99.90
11446;DHT22;5779;64.178;15.432;2022-09-03T16:22:43;10.70;99.90
11446;DHT22;5779;64.178;15.432;2022-09-03T16:25:41;10.70;99.90
11446;DHT22;5779;64.178;15.432;2022-09-03T16:28:34;10.60;99.90
11446;DHT22;5779;64.178;15.432;2022-09-03T16:31:32;10.20;99.90
11446;DHT22;5779;64.178;15.432;2022-09-03T16:34:27;9.80;99.90
11446;DHT22;5779;64.178;15.432;2022-09-03T16:37:23;10.10;99.90
11446;DHT22;5779;64.178;15.432;2022-09-03T16:40:19;10.50;99.90
11446;DHT22;5779;64.178;15.432;2022-09-03T16:43:14;10.70;99.90
11446;DHT22;5779;64.178;15.432;2022-09-03T16:46:17;10.50;99.90
11446;DHT22;5779;64.178;15.432;2022-09-03T16:49:18;10.70;99.90
11446;DHT22;5779;64.178;15.432;2022-09-03T16:52:18;11.40;99.90
11446;DHT22;5779;64.178;15.432;2022-09-03T16:55:18;12.10;99.90
11446;DHT22;5779;64.178;15.432;2022-09-03T16:58:15;12.90;99.90
11446;DHT22;5779;64.178;15.432;2022-09-03T17:01:14;13.20;99.90
11446;DHT22;5779;64.178;15.432;2022-09-03T17:04:21;13.20;99.90
11446;DHT22;5779;64.178;15.432;2022-09-03T17:07:25;12.70;99.90
11446;DHT22;5779;64.178;15.432;2022-09-03T17:10:19;12.70;99.90
11446;DHT22;5779;64.178;15.432;2022-09-03T17:13:25;12.70;99.90
11446;DHT22;5779;64.178;15.432;2022-09-03T17:16:25;12.60;99.90
11446;DHT22;5779;64.178;15.432;2022-09-03T17:19:23;12.70;99.90
11446;DHT22;5779;64.178;15.432;2022-09-03T17:22:22;12.50;99.90
11446;DHT22;5779;64.178;15.432;2022-09-03T17:25:22;12.30;99.90
11446;DHT22;5779;64.178;15.432;2022-09-03T17:28:21;12.30;99.90
11446;DHT22;5779;64.178;15.432;2022-09-03T17:31:18;12.10;99.90
11446;DHT22;5779;64.178;15.432;2022-09-03T17:34:10;11.70;99.90
11446;DHT22;5779;64.178;15.432;2022-09-03T17:37:12;11.20;99.90
11446;DHT22;5779;64.178;15.432;2022-09-03T17:40:26;10.70;99.90
11446;DHT22;5779;64.178;15.432;2022-09-03T17:43:17;10.30;99.90
11446;DHT22;5779;64.178;15.432;2022-09-03T17:46:13;10.40;99.90
11446;DHT22;5779;64.178;15.432;2022-09-03T17:49:06;10.10;99.90
11446;DHT22;5779;64.178;15.432;2022-09-03T17:52:01;10.00;99.90
11446;DHT22;5779;64.178;15.432;2022-09-03T17:54:51;10.20;99.90
11446;DHT22;5779;64.178;15.432;2022-09-03T17:57:45;10.30;99.90
11446;DHT22;5779;64.178;15.432;2022-09-03T18:00:37;10.40;99.90
11446;DHT22;5779;64.178;15.432;2022-09-03T18:03:31;10.40;99.90
11446;DHT22;5779;64.178;15.432;2022-09-03T18:06:29;10.40;99.90
11446;DHT22;5779;64.178;15.432;2022-09-03T18:09:26;10.50;99.90
11446;DHT22;5779;64.178;15.432;2022-09-03T18:12:26;10.40;99.90
11446;DHT22;5779;64.178;15.432;2022-09-03T18:15:20;10.10;99.90
11446;DHT22;5779;64.178;15.432;2022-09-03T18:18:11;10.10;99.90
11446;DHT22;5779;64.178;15.432;2022-09-03T18:21:06;10.20;99.90
11446;DHT22;5779;64.178;15.432;2022-09-03T18:24:22;9.90;99.90
11446;DHT22;5779;64.178;15.432;2022-09-03T18:27:34;9.60;99.90
11446;DHT22;5779;64.178;15.432;2022-09-03T18:30:40;9.50;99.90
11446;DHT22;5779;64.178;15.432;2022-09-03T18:33:44;9.40;99.90
11446;DHT22;5779;64.178;15.432;2022-09-03T18:36:49;9.30;99.90
11446;DHT22;5779;64.178;15.432;2022-09-03T18:39:54;9.30;99.90
11446;DHT22;5779;64.178;15.432;2022-09-03T18:43:06;9.00;99.90